Airfield :







YOU CAN JOIN US ON...

 
LOGIN :

Register | Disclaimer

   EN    FR    IT 

 









Legend :    VFR   Marginal VFR   IFR   Intensive IFR   Very Intensive IFR
Visi :
Ceiling :
>= 8 km
>= 3000ft
5 to 8 km
1000 to 3000 ft
1500m to 5 km
500 to 1000 ft
800 to 1500m
200 to 500 ft
< 800m
< 200 ft
Symbols :   Thunderstorms  Fog  Heavy snow  Heavy precipitations  Wind > 20 kt






- Airport Elevation : 787 ft
- IATA code : RUT


KRUT - Rutland - Southern Vermont Regional

CURRENT METAR :
  • 130656Z AUTO 13007KT 10SM CLR 17/16 A3015 RMK AO2 SLP200 T01670161 $

EXPIRED METARs :
  • 130556Z AUTO 14006KT 10SM CLR 17/17 A3014 RMK AO2 SLP199 T01720167 10239 20172 53006 $
  • 130456Z AUTO 14005KT 10SM FEW065 18/17 A3014 RMK AO2 SLP197 T01780167 402890178 $

TAF KRUT
Valid from the 13 at 06:00 until the 14 at 06:00 UTC


130530Z 1306/1406 13007KT P6SM FEW180
FM131200 VRB03KT P6SM SCT250
KZBW FIR / North America



MET'MAP, your aeronautical weather chart ! - Copyright ORBIFLY December 2007 - Disclaimer

ORBIFLY MET'MAP TEAM :

Programming & Development : Alexandra Zaïnal
Concept & original design : Baudouin d'Aumeries
Assistance for programming : Marc-Olivier Méhu
Technical & hardware support : Manuel Goepfert

Contact : metmap@orbifly.com




SOURCES & CREDITS :

   NOAA